sensor_id;sensor_type;location;lat;lon;timestamp;temperature;humidity
35682;DHT22;21805;51.022;4.782;2023-08-21T00:01:26;21.70;99.90
35682;DHT22;21805;51.022;4.782;2023-08-21T00:03:54;21.70;99.90
35682;DHT22;21805;51.022;4.782;2023-08-21T00:06:47;21.70;99.90
35682;DHT22;21805;51.022;4.782;2023-08-21T00:09:25;21.70;99.90
35682;DHT22;21805;51.022;4.782;2023-08-21T00:15:10;21.60;99.90
35682;DHT22;21805;51.022;4.782;2023-08-21T00:18:05;21.60;99.90
35682;DHT22;21805;51.022;4.782;2023-08-21T00:20:36;21.50;99.90
35682;DHT22;21805;51.022;4.782;2023-08-21T00:23:08;21.50;99.90
35682;DHT22;21805;51.022;4.782;2023-08-21T00:25:45;21.40;99.90
35682;DHT22;21805;51.022;4.782;2023-08-21T00:28:27;21.40;99.90
35682;DHT22;21805;51.022;4.782;2023-08-21T00:31:13;21.30;99.90
35682;DHT22;21805;51.022;4.782;2023-08-21T00:34:01;21.30;99.90
35682;DHT22;21805;51.022;4.782;2023-08-21T00:36:35;21.30;99.90
35682;DHT22;21805;51.022;4.782;2023-08-21T00:39:10;21.30;99.90
35682;DHT22;21805;51.022;4.782;2023-08-21T00:41:45;21.40;99.90
35682;DHT22;21805;51.022;4.782;2023-08-21T00:44:39;21.30;99.90
35682;DHT22;21805;51.022;4.782;2023-08-21T00:48:01;21.30;99.90
35682;DHT22;21805;51.022;4.782;2023-08-21T00:50:56;21.30;99.90
35682;DHT22;21805;51.022;4.782;2023-08-21T00:53:42;21.20;99.90
35682;DHT22;21805;51.022;4.782;2023-08-21T00:56:28;21.20;99.90
35682;DHT22;21805;51.022;4.782;2023-08-21T00:58:56;21.20;99.90
35682;DHT22;21805;51.022;4.782;2023-08-21T01:01:35;21.20;99.90
35682;DHT22;21805;51.022;4.782;2023-08-21T01:04:24;21.20;99.90
35682;DHT22;21805;51.022;4.782;2023-08-21T01:06:58;21.20;99.90
35682;DHT22;21805;51.022;4.782;2023-08-21T01:10:07;21.30;99.90
35682;DHT22;21805;51.022;4.782;2023-08-21T01:16:00;21.20;99.90
35682;DHT22;21805;51.022;4.782;2023-08-21T01:18:58;21.20;99.90
35682;DHT22;21805;51.022;4.782;2023-08-21T01:21:56;21.20;99.90
35682;DHT22;21805;51.022;4.782;2023-08-21T01:24:26;21.20;99.90
35682;DHT22;21805;51.022;4.782;2023-08-21T01:27:12;21.20;99.90
35682;DHT22;21805;51.022;4.782;2023-08-21T01:37:53;21.10;99.90
35682;DHT22;21805;51.022;4.782;2023-08-21T01:40:55;21.10;99.90
35682;DHT22;21805;51.022;4.782;2023-08-21T01:55:51;21.00;99.90
35682;DHT22;21805;51.022;4.782;2023-08-21T01:58:29;21.00;99.90
35682;DHT22;21805;51.022;4.782;2023-08-21T02:01:01;21.00;99.90
35682;DHT22;21805;51.022;4.782;2023-08-21T02:09:33;20.90;99.90
35682;DHT22;21805;51.022;4.782;2023-08-21T02:11:59;20.80;99.90
35682;DHT22;21805;51.022;4.782;2023-08-21T02:14:25;20.70;99.90
35682;DHT22;21805;51.022;4.782;2023-08-21T02:16:52;20.70;99.90
35682;DHT22;21805;51.022;4.782;2023-08-21T02:19:18;20.70;99.90
35682;DHT22;21805;51.022;4.782;2023-08-21T02:21:50;20.80;99.90
35682;DHT22;21805;51.022;4.782;2023-08-21T02:24:15;20.70;99.90
35682;DHT22;21805;51.022;4.782;2023-08-21T02:26:45;20.60;99.90
35682;DHT22;21805;51.022;4.782;2023-08-21T02:29:14;20.60;99.90
35682;DHT22;21805;51.022;4.782;2023-08-21T02:31:43;20.60;99.90
35682;DHT22;21805;51.022;4.782;2023-08-21T02:34:09;20.60;99.90
35682;DHT22;21805;51.022;4.782;2023-08-21T02:36:38;20.60;99.90
35682;DHT22;21805;51.022;4.782;2023-08-21T02:39:07;20.60;99.90
35682;DHT22;21805;51.022;4.782;2023-08-21T02:41:39;20.60;99.90
35682;DHT22;21805;51.022;4.782;2023-08-21T02:44:08;20.60;99.90
35682;DHT22;21805;51.022;4.782;2023-08-21T02:46:34;20.50;99.90
35682;DHT22;21805;51.022;4.782;2023-08-21T02:49:02;20.50;99.90
35682;DHT22;21805;51.022;4.782;2023-08-21T02:51:29;20.60;99.90
35682;DHT22;21805;51.022;4.782;2023-08-21T02:53:57;20.60;99.90
35682;DHT22;21805;51.022;4.782;2023-08-21T02:56:25;20.50;99.90
35682;DHT22;21805;51.022;4.782;2023-08-21T02:58:53;20.50;99.90
35682;DHT22;21805;51.022;4.782;2023-08-21T03:01:22;20.50;99.90
35682;DHT22;21805;51.022;4.782;2023-08-21T03:03:51;20.50;99.90
35682;DHT22;21805;51.022;4.782;2023-08-21T03:06:17;20.50;99.90
35682;DHT22;21805;51.022;4.782;2023-08-21T03:08:43;20.50;99.90
35682;DHT22;21805;51.022;4.782;2023-08-21T03:11:24;20.50;99.90
35682;DHT22;21805;51.022;4.782;2023-08-21T03:13:53;20.50;99.90
35682;DHT22;21805;51.022;4.782;2023-08-21T03:16:19;20.50;99.90
35682;DHT22;21805;51.022;4.782;2023-08-21T03:19:09;20.50;99.90
35682;DHT22;21805;51.022;4.782;2023-08-21T03:21:35;20.50;99.90
35682;DHT22;21805;51.022;4.782;2023-08-21T03:24:01;20.50;99.90
35682;DHT22;21805;51.022;4.782;2023-08-21T03:26:29;20.40;99.90
35682;DHT22;21805;51.022;4.782;2023-08-21T03:29:00;20.30;99.90
35682;DHT22;21805;51.022;4.782;2023-08-21T03:31:26;20.30;99.90
35682;DHT22;21805;51.022;4.782;2023-08-21T03:33:55;20.30;99.90
35682;DHT22;21805;51.022;4.782;2023-08-21T03:36:23;20.20;99.90
35682;DHT22;21805;51.022;4.782;2023-08-21T03:39:00;20.20;99.90
35682;DHT22;21805;51.022;4.782;2023-08-21T03:41:28;20.20;99.90
35682;DHT22;21805;51.022;4.782;2023-08-21T03:43:57;20.10;99.90
35682;DHT22;21805;51.022;4.782;2023-08-21T03:46:26;20.10;99.90
35682;DHT22;21805;51.022;4.782;2023-08-21T03:48:52;20.00;99.90
35682;DHT22;21805;51.022;4.782;2023-08-21T03:51:21;20.00;99.90
35682;DHT22;21805;51.022;4.782;2023-08-21T03:53:50;19.90;99.90
35682;DHT22;21805;51.022;4.782;2023-08-21T03:56:16;19.90;99.90
35682;DHT22;21805;51.022;4.782;2023-08-21T03:58:42;19.80;99.90
35682;DHT22;21805;51.022;4.782;2023-08-21T04:01:10;19.80;99.90
35682;DHT22;21805;51.022;4.782;2023-08-21T04:03:40;19.90;99.90
35682;DHT22;21805;51.022;4.782;2023-08-21T04:06:07;19.90;99.90
35682;DHT22;21805;51.022;4.782;2023-08-21T04:08:33;19.90;99.90
35682;DHT22;21805;51.022;4.782;2023-08-21T04:11:02;19.90;99.90
35682;DHT22;21805;51.022;4.782;2023-08-21T04:13:29;19.80;99.90
35682;DHT22;21805;51.022;4.782;2023-08-21T04:15:58;19.80;99.90
35682;DHT22;21805;51.022;4.782;2023-08-21T04:18:27;19.80;99.90
35682;DHT22;21805;51.022;4.782;2023-08-21T04:20:53;19.80;99.90
35682;DHT22;21805;51.022;4.782;2023-08-21T04:23:22;19.90;99.90
35682;DHT22;21805;51.022;4.782;2023-08-21T04:25:51;19.80;99.90
35682;DHT22;21805;51.022;4.782;2023-08-21T04:28:17;19.90;99.90
35682;DHT22;21805;51.022;4.782;2023-08-21T04:30:42;19.80;99.90
35682;DHT22;21805;51.022;4.782;2023-08-21T04:33:08;19.80;99.90
35682;DHT22;21805;51.022;4.782;2023-08-21T04:35:42;19.90;99.90
35682;DHT22;21805;51.022;4.782;2023-08-21T04:38:08;19.70;99.90
35682;DHT22;21805;51.022;4.782;2023-08-21T04:40:36;19.70;99.90
35682;DHT22;21805;51.022;4.782;2023-08-21T04:43:04;19.70;99.90
35682;DHT22;21805;51.022;4.782;2023-08-21T04:45:30;19.60;99.90
35682;DHT22;21805;51.022;4.782;2023-08-21T04:47:59;19.60;99.90
35682;DHT22;21805;51.022;4.782;2023-08-21T04:50:28;19.70;99.90
35682;DHT22;21805;51.022;4.782;2023-08-21T04:52:56;19.60;99.90
35682;DHT22;21805;51.022;4.782;2023-08-21T04:55:25;19.50;99.90
35682;DHT22;21805;51.022;4.782;2023-08-21T04:57:51;19.50;99.90
35682;DHT22;21805;51.022;4.782;2023-08-21T05:00:18;19.50;99.90
35682;DHT22;21805;51.022;4.782;2023-08-21T05:02:47;19.50;99.90
35682;DHT22;21805;51.022;4.782;2023-08-21T05:05:13;19.50;99.90
35682;DHT22;21805;51.022;4.782;2023-08-21T05:07:43;19.40;99.90
35682;DHT22;21805;51.022;4.782;2023-08-21T05:10:11;19.40;99.90
35682;DHT22;21805;51.022;4.782;2023-08-21T05:12:43;19.50;99.90
35682;DHT22;21805;51.022;4.782;2023-08-21T05:15:15;19.50;99.90
35682;DHT22;21805;51.022;4.782;2023-08-21T05:17:41;19.50;99.90
35682;DHT22;21805;51.022;4.782;2023-08-21T05:20:13;19.60;99.90
35682;DHT22;21805;51.022;4.782;2023-08-21T05:22:43;19.60;99.90
35682;DHT22;21805;51.022;4.782;2023-08-21T05:25:13;19.60;99.90
35682;DHT22;21805;51.022;4.782;2023-08-21T05:27:42;19.70;99.90
35682;DHT22;21805;51.022;4.782;2023-08-21T05:30:09;19.80;99.90
35682;DHT22;21805;51.022;4.782;2023-08-21T05:32:40;19.90;99.90
35682;DHT22;21805;51.022;4.782;2023-08-21T05:35:06;20.00;99.90
35682;DHT22;21805;51.022;4.782;2023-08-21T05:37:41;20.00;99.90
35682;DHT22;21805;51.022;4.782;2023-08-21T05:40:39;20.10;99.90
35682;DHT22;21805;51.022;4.782;2023-08-21T06:04:59;20.90;99.90
35682;DHT22;21805;51.022;4.782;2023-08-21T15:24:48;32.10;99.90
35682;DHT22;21805;51.022;4.782;2023-08-21T15:31:14;31.80;99.90
35682;DHT22;21805;51.022;4.782;2023-08-21T15:33:50;31.80;99.90
35682;DHT22;21805;51.022;4.782;2023-08-21T15:36:33;31.60;99.90
35682;DHT22;21805;51.022;4.782;2023-08-21T18:23:26;25.60;99.90
35682;DHT22;21805;51.022;4.782;2023-08-21T18:26:04;25.60;99.90
35682;DHT22;21805;51.022;4.782;2023-08-21T18:28:44;25.50;99.90
35682;DHT22;21805;51.022;4.782;2023-08-21T18:31:13;25.50;99.90
35682;DHT22;21805;51.022;4.782;2023-08-21T18:33:54;25.40;99.90
35682;DHT22;21805;51.022;4.782;2023-08-21T18:36:24;25.30;99.90
35682;DHT22;21805;51.022;4.782;2023-08-21T18:39:09;25.20;99.90
35682;DHT22;21805;51.022;4.782;2023-08-21T18:41:39;25.10;99.90
35682;DHT22;21805;51.022;4.782;2023-08-21T18:44:23;25.10;99.90
35682;DHT22;21805;51.022;4.782;2023-08-21T18:47:00;25.00;99.90
35682;DHT22;21805;51.022;4.782;2023-08-21T18:49:36;24.90;99.90
35682;DHT22;21805;51.022;4.782;2023-08-21T18:52:08;24.90;99.90
35682;DHT22;21805;51.022;4.782;2023-08-21T18:54:38;24.70;99.90
35682;DHT22;21805;51.022;4.782;2023-08-21T18:57:13;24.60;99.90
35682;DHT22;21805;51.022;4.782;2023-08-21T18:59:44;24.70;99.90
35682;DHT22;21805;51.022;4.782;2023-08-21T19:02:27;24.60;99.90
35682;DHT22;21805;51.022;4.782;2023-08-21T21:27:16;22.30;99.90
35682;DHT22;21805;51.022;4.782;2023-08-21T21:29:53;22.30;99.90
35682;DHT22;21805;51.022;4.782;2023-08-21T21:32:39;22.20;99.90
35682;DHT22;21805;51.022;4.782;2023-08-21T21:35:16;22.30;99.90
35682;DHT22;21805;51.022;4.782;2023-08-21T21:37:49;22.30;99.90
35682;DHT22;21805;51.022;4.782;2023-08-21T21:40:19;22.30;99.90
35682;DHT22;21805;51.022;4.782;2023-08-21T21:42:57;22.20;99.90
35682;DHT22;21805;51.022;4.782;2023-08-21T21:45:34;22.10;99.90
